Time;durP1;ratioP1;P1;durP2;ratioP2;P2;SDS_P1;SDS_P2;PMS_P1;PMS_P2;Temp;Humidity;BMP_temperature;BMP_pressure;BME280_temperature;BME280_humidity;BME280_pressure;Samples;Min_cycle;Max_cycle;Signal;HPM_P1;HPM_P2
2022/10/04 00:01:46;;;;;;;;;49.00;40.50;;;;;11.22;88.55;101822.78;5063588;28;45170;-77
2022/10/04 00:04:29;;;;;;;;;41.75;36.75;;;;;11.24;88.36;101843.91;5081351;28;46153;-77
2022/10/04 00:07:07;;;;;;;;;48.50;39.75;;;;;11.21;88.03;101842.41;5085087;27;45376;-77
2022/10/04 00:09:44;;;;;;;;;43.00;37.25;;;;;11.21;88.64;101845.06;5084392;27;45290;-77
2022/10/04 00:12:29;;;;;;;;;45.50;39.25;;;;;11.15;88.53;101827.03;5081552;28;45417;-78
2022/10/04 00:14:58;;;;;;;;;42.50;36.50;;;;;11.17;88.40;101832.22;5055126;28;47307;-77
2022/10/04 00:17:27;;;;;;;;;46.50;37.75;;;;;11.18;88.48;101847.16;5063304;28;46381;-78
2022/10/04 00:19:54;;;;;;;;;43.25;36.50;;;;;11.13;88.49;101847.63;5080157;28;45456;-77
2022/10/04 00:22:31;;;;;;;;;40.00;34.00;;;;;11.05;88.31;101845.72;5080113;28;45359;-77
2022/10/04 00:25:05;;;;;;;;;41.00;36.00;;;;;11.05;88.46;101840.38;5081144;28;45434;-77
2022/10/04 00:27:30;;;;;;;;;39.50;34.25;;;;;11.04;88.48;101844.03;5062723;28;47380;-77
2022/10/04 00:30:02;;;;;;;;;46.75;38.50;;;;;11.04;88.62;101848.53;5079744;28;45291;-77
2022/10/04 00:32:40;;;;;;;;;46.50;37.00;;;;;11.02;88.52;101840.72;5081592;28;45302;-77
2022/10/04 00:35:46;;;;;;;;;43.50;34.75;;;;;10.99;88.42;101841.81;5081052;28;45584;-77
2022/10/04 00:38:14;;;;;;;;;42.50;36.50;;;;;10.97;88.24;101850.94;5035876;28;46399;-77
2022/10/04 00:40:49;;;;;;;;;34.25;30.50;;;;;10.94;88.12;101849.44;5062865;28;46061;-77
2022/10/04 00:43:24;;;;;;;;;35.00;32.25;;;;;10.94;88.10;101848.59;5081014;28;45427;-77
2022/10/04 00:45:55;;;;;;;;;36.75;34.00;;;;;10.84;88.59;101849.47;5081156;28;45247;-77
2022/10/04 00:48:33;;;;;;;;;38.50;35.00;;;;;10.92;88.36;101856.72;5080834;28;46386;-77
2022/10/04 00:51:27;;;;;;;;;32.25;31.25;;;;;10.90;88.62;101848.06;5081230;28;45337;-77
2022/10/04 00:54:31;;;;;;;;;40.50;34.50;;;;;10.86;88.37;101850.19;5062697;28;45311;-77
2022/10/04 00:57:47;;;;;;;;;36.75;33.25;;;;;10.84;88.41;101843.34;5080721;28;45438;-78
2022/10/04 01:00:20;;;;;;;;;40.00;34.00;;;;;10.84;88.38;101838.03;5062808;28;45457;-76
2022/10/04 01:02:55;;;;;;;;;41.50;36.25;;;;;10.85;88.00;101837.03;5080808;28;45479;-77
2022/10/04 01:05:40;;;;;;;;;33.75;32.50;;;;;10.81;87.79;101831.16;5080647;28;45486;-77
2022/10/04 01:08:13;;;;;;;;;37.25;34.25;;;;;10.77;88.18;101827.13;5065857;28;45493;-77
2022/10/04 01:11:14;;;;;;;;;33.25;29.50;;;;;10.73;87.91;101828.41;5062211;28;48388;-77
2022/10/04 01:13:55;;;;;;;;;40.00;36.00;;;;;10.63;87.99;101824.97;5061625;28;45388;-77
2022/10/04 01:16:24;;;;;;;;;34.00;30.25;;;;;10.62;88.51;101821.47;5080481;28;45299;-77
2022/10/04 01:18:49;;;;;;;;;39.50;33.50;;;;;10.61;88.25;101822.47;5080556;28;45424;-77
2022/10/04 01:21:21;;;;;;;;;34.25;30.00;;;;;10.63;88.52;101825.81;5078658;28;45454;-77
2022/10/04 01:23:52;;;;;;;;;36.75;32.00;;;;;10.61;88.39;101817.16;5058993;28;45822;-77
2022/10/04 01:26:31;;;;;;;;;32.25;31.00;;;;;10.64;88.60;101816.84;5075385;28;45239;-77
2022/10/04 01:29:00;;;;;;;;;32.67;31.00;;;;;10.59;88.39;101805.81;5060858;28;45860;-77
2022/10/04 01:31:31;;;;;;;;;35.00;32.50;;;;;10.60;88.38;101805.66;5061660;28;47276;-77
2022/10/04 01:33:59;;;;;;;;;35.75;31.50;;;;;10.59;88.26;101804.00;5080348;28;45370;-77
2022/10/04 01:36:26;;;;;;;;;32.75;31.00;;;;;10.56;88.09;101800.78;5080465;28;45369;-77
2022/10/04 01:38:52;;;;;;;;;33.50;31.00;;;;;10.51;88.20;101800.41;5080318;28;45469;-77
2022/10/04 01:41:24;;;;;;;;;35.25;33.00;;;;;10.45;88.59;101799.16;5079890;28;45467;-77
2022/10/04 01:43:57;;;;;;;;;28.00;27.33;;;;;10.38;88.50;101790.09;5080101;28;45365;-77
2022/10/04 01:46:26;;;;;;;;;33.25;31.25;;;;;10.33;88.60;101786.03;5080252;28;45489;-77
2022/10/04 01:48:55;;;;;;;;;34.25;31.25;;;;;10.35;89.18;101780.56;5080055;28;45650;-77
2022/10/04 01:51:29;;;;;;;;;35.25;32.00;;;;;10.33;89.17;101774.59;5061668;28;48676;-78
2022/10/04 01:53:57;;;;;;;;;31.75;29.75;;;;;10.42;88.83;101786.97;5080028;28;45256;-78
2022/10/04 01:56:28;;;;;;;;;32.50;31.50;;;;;10.39;89.28;101783.78;5079922;28;45508;-77
2022/10/04 01:58:59;;;;;;;;;34.25;31.50;;;;;10.40;88.73;101783.66;5079790;28;45465;-78
2022/10/04 02:01:42;;;;;;;;;32.25;29.75;;;;;10.40;89.07;101766.84;5079694;28;46212;-77
2022/10/04 02:04:29;;;;;;;;;33.50;31.50;;;;;10.39;89.09;101759.88;5079581;28;45382;-77
2022/10/04 02:06:58;;;;;;;;;30.50;28.25;;;;;10.40;89.00;101759.72;5070282;28;45438;-78
2022/10/04 02:09:32;;;;;;;;;29.25;28.75;;;;;10.38;88.95;101766.19;5057183;28;47056;-78
2022/10/04 02:11:59;;;;;;;;;29.67;28.33;;;;;10.33;88.94;101753.34;5079641;28;45468;-78
2022/10/04 02:14:28;;;;;;;;;29.00;29.00;;;;;10.32;89.00;101754.28;5079484;28;45310;-78
2022/10/04 02:16:54;;;;;;;;;32.33;29.67;;;;;10.29;88.73;101754.59;5061682;28;45383;-78
2022/10/04 02:19:26;;;;;;;;;35.00;31.67;;;;;10.31;89.25;101755.28;5079553;28;45324;-78
2022/10/04 02:21:54;;;;;;;;;29.33;29.33;;;;;10.31;88.80;101753.47;5061053;28;47125;-78
2022/10/04 02:24:20;;;;;;;;;26.00;26.00;;;;;10.28;88.50;101750.28;5079562;28;45358;-78
2022/10/04 02:26:50;;;;;;;;;31.33;31.00;;;;;10.29;88.73;101755.44;5056376;28;45261;-78
2022/10/04 02:29:17;;;;;;;;;29.67;29.67;;;;;10.26;88.57;101744.28;5070637;28;45490;-78
2022/10/04 02:34:41;;;;;;;;;28.00;28.00;;;;;10.16;88.36;101729.22;5016287;28;45311;-75
2022/10/04 02:37:08;;;;;;;;;28.33;27.00;;;;;10.19;88.17;101734.25;5079604;28;45324;-78
2022/10/04 02:39:43;;;;;;;;;29.33;27.33;;;;;10.20;88.19;101741.22;5079506;28;45346;-77
2022/10/04 02:42:15;;;;;;;;;25.67;25.67;;;;;10.15;88.30;101732.03;5059949;28;47252;-78
2022/10/04 02:45:04;;;;;;;;;27.00;26.00;;;;;10.13;88.18;101723.34;5079362;28;45314;-78
2022/10/04 02:47:41;;;;;;;;;32.33;30.67;;;;;10.13;87.99;101728.66;5078847;28;45390;-78
2022/10/04 02:50:31;;;;;;;;;26.67;26.67;;;;;10.04;88.37;101723.25;5079091;28;45287;-78
2022/10/04 02:53:10;;;;;;;;;24.67;24.33;;;;;10.04;88.18;101725.06;5079090;28;45362;-78
2022/10/04 02:55:36;;;;;;;;;24.00;23.67;;;;;10.01;88.44;101725.38;5060726;28;46672;-78
2022/10/04 02:58:09;;;;;;;;;26.33;26.33;;;;;9.90;88.30;101718.41;5079268;28;45342;-78
2022/10/04 03:00:45;;;;;;;;;27.67;27.67;;;;;9.87;88.37;101714.22;5078868;28;45311;-78
2022/10/04 03:03:31;;;;;;;;;27.33;24.33;;;;;9.88;88.37;101723.03;5078962;28;45304;-78
2022/10/04 03:06:03;;;;;;;;;24.67;24.67;;;;;9.82;88.27;101714.66;5059113;28;45752;-78
2022/10/04 03:08:33;;;;;;;;;25.33;25.33;;;;;9.83;88.42;101713.69;5058813;28;45454;-78
2022/10/04 03:11:03;;;;;;;;;25.67;25.33;;;;;9.83;88.79;101711.03;5072190;28;46371;-78
2022/10/04 03:13:30;;;;;;;;;23.67;23.67;;;;;9.76;88.80;101707.28;5078753;28;46329;-78
2022/10/04 03:15:55;;;;;;;;;25.33;23.67;;;;;9.83;89.14;101720.81;5078968;28;45354;-78
2022/10/04 03:18:21;;;;;;;;;25.67;24.67;;;;;9.84;88.68;101720.69;5078980;28;45495;-78
2022/10/04 03:20:47;;;;;;;;;25.33;24.67;;;;;9.71;88.67;101707.75;5078897;28;45560;-78
2022/10/04 03:23:15;;;;;;;;;24.67;24.00;;;;;9.80;88.66;101714.00;5078566;28;45473;-78
2022/10/04 03:25:55;;;;;;;;;24.67;24.00;;;;;9.79;88.92;101707.00;5060603;28;45334;-78
2022/10/04 03:28:21;;;;;;;;;29.00;26.67;;;;;9.78;88.76;101707.13;5077270;28;45268;-78
2022/10/04 03:30:48;;;;;;;;;24.33;23.33;;;;;9.78;88.51;101696.50;5060555;28;46960;-78
2022/10/04 03:33:21;;;;;;;;;23.00;23.00;;;;;9.76;88.24;101695.84;5078568;28;45269;-78
2022/10/04 03:35:51;;;;;;;;;29.00;27.67;;;;;9.66;88.83;101682.59;5068289;28;45350;-78
2022/10/04 03:38:17;;;;;;;;;25.33;25.00;;;;;9.69;88.46;101692.91;5055963;28;45378;-78
2022/10/04 03:40:50;;;;;;;;;24.67;24.33;;;;;9.65;88.44;101689.72;5078474;28;45456;-78
2022/10/04 03:43:16;;;;;;;;;23.33;23.00;;;;;9.63;88.23;101682.88;5078436;28;46115;-78
2022/10/04 03:45:42;;;;;;;;;29.00;26.00;;;;;9.61;88.18;101667.13;5060313;28;45402;-78
2022/10/04 03:48:13;;;;;;;;;27.67;24.33;;;;;9.58;88.32;101664.75;5060517;28;45437;-78
2022/10/04 03:50:47;;;;;;;;;25.33;22.33;;;;;9.55;88.27;101673.00;5060177;28;46449;-78
2022/10/04 03:53:20;;;;;;;;;26.67;24.33;;;;;9.49;88.59;101669.13;5078510;28;45452;-77
2022/10/04 03:55:46;;;;;;;;;26.00;22.67;;;;;9.49;88.78;101665.59;5081306;28;45358;-79
2022/10/04 03:58:16;;;;;;;;;21.67;19.67;;;;;9.59;88.88;101667.25;5082131;28;45378;-79
2022/10/04 04:00:53;;;;;;;;;26.33;23.33;;;;;9.57;88.78;101666.56;5081652;28;45256;-78
2022/10/04 04:03:20;;;;;;;;;20.33;20.33;;;;;9.56;88.95;101662.25;5081730;28;45414;-78
2022/10/04 04:05:52;;;;;;;;;21.33;21.33;;;;;9.52;88.97;101660.00;5081524;28;45395;-78
2022/10/04 04:08:41;;;;;;;;;23.00;22.67;;;;;9.49;88.92;101661.16;5063585;28;45173;-77
2022/10/04 04:11:17;;;;;;;;;22.67;22.67;;;;;9.38;88.82;101643.56;5067467;28;45350;-78
2022/10/04 04:13:55;;;;;;;;;25.00;23.33;;;;;9.42;88.75;101671.50;5081671;28;45385;-77
2022/10/04 04:16:26;;;;;;;;;25.33;22.33;;;;;9.39;89.38;101665.63;5081458;28;45309;-78
2022/10/04 04:18:54;;;;;;;;;20.67;19.33;;;;;9.39;89.34;101673.56;5063370;28;45425;-78
2022/10/04 04:21:23;;;;;;;;;23.00;23.00;;;;;9.44;89.56;101685.47;5081191;28;45494;-78
2022/10/04 04:24:01;;;;;;;;;21.33;21.00;;;;;9.46;89.07;101691.44;5063134;28;47897;-78
2022/10/04 04:26:27;;;;;;;;;26.00;24.67;;;;;9.43;88.63;101693.56;5079373;28;45366;-78
2022/10/04 04:29:21;;;;;;;;;22.67;20.67;;;;;9.38;89.00;101699.28;5063527;28;45314;-78
2022/10/04 04:31:58;;;;;;;;;26.67;23.67;;;;;9.38;88.86;101693.97;5063039;28;47153;-78
2022/10/04 04:34:31;;;;;;;;;22.67;22.00;;;;;9.33;88.71;101682.94;5081349;28;46154;-78
2022/10/04 04:37:02;;;;;;;;;24.00;22.33;;;;;9.34;88.85;101695.25;5081144;28;45402;-78
2022/10/04 04:39:44;;;;;;;;;24.00;22.67;;;;;9.34;89.25;101697.91;5081420;28;45318;-78
2022/10/04 04:42:12;;;;;;;;;28.00;25.67;;;;;9.41;89.12;101706.97;5062522;28;46306;-78
2022/10/04 04:44:46;;;;;;;;;23.33;23.33;;;;;9.40;88.57;101699.97;5062753;28;48480;-79
2022/10/04 04:47:28;;;;;;;;;24.00;23.67;;;;;9.34;88.62;101697.91;5081091;28;45283;-78
2022/10/04 04:50:23;;;;;;;;;23.67;22.33;;;;;9.29;88.47;101695.69;5081237;28;45475;-78
2022/10/04 04:53:16;;;;;;;;;25.33;22.67;;;;;9.28;88.31;101691.34;5062651;28;47282;-78
2022/10/04 04:55:57;;;;;;;;;22.33;21.33;;;;;9.24;88.05;101686.44;5077632;28;46056;-78
2022/10/04 04:58:26;;;;;;;;;23.67;22.67;;;;;9.18;87.96;101682.56;5080884;28;45399;-79
2022/10/04 05:01:05;;;;;;;;;22.67;22.67;;;;;9.13;88.57;101687.47;5080892;28;45307;-79
2022/10/04 05:03:32;;;;;;;;;28.00;26.67;;;;;9.16;88.15;101701.25;5080699;28;45302;-79
2022/10/04 05:06:01;;;;;;;;;31.33;29.33;;;;;9.14;88.19;101691.78;5060323;28;47287;-78
2022/10/04 05:08:29;;;;;;;;;27.67;26.33;;;;;9.09;88.28;101695.69;5068520;28;45449;-78
2022/10/04 05:10:57;;;;;;;;;26.67;25.00;;;;;9.11;88.59;101695.56;5080562;28;45252;-79
2022/10/04 05:13:46;;;;;;;;;29.75;29.00;;;;;9.08;88.34;101694.03;5062310;28;46026;-79
2022/10/04 05:16:16;;;;;;;;;26.67;26.00;;;;;9.05;88.79;101699.63;5078152;28;45374;-78
2022/10/04 05:18:43;;;;;;;;;23.33;23.33;;;;;9.06;88.34;101692.47;5069006;28;45492;-78
2022/10/04 05:21:22;;;;;;;;;24.67;22.00;;;;;9.08;88.33;101704.66;5062201;28;45825;-79
2022/10/04 05:23:48;;;;;;;;;24.67;24.67;;;;;9.06;88.48;101695.13;5080595;28;45386;-79
2022/10/04 05:26:20;;;;;;;;;26.33;25.67;;;;;9.08;88.31;101702.00;5061608;28;47670;-79
2022/10/04 05:28:45;;;;;;;;;25.25;25.00;;;;;9.05;88.42;101689.00;5073913;28;45523;-79
2022/10/04 05:31:29;;;;;;;;;23.00;23.00;;;;;9.06;88.27;101703.09;5080457;28;45308;-79
2022/10/04 05:33:57;;;;;;;;;23.00;22.00;;;;;9.00;88.45;101703.63;5080354;28;45637;-79
2022/10/04 05:36:45;;;;;;;;;25.00;21.67;;;;;9.01;88.30;101708.00;5080325;28;45331;-78
2022/10/04 05:39:32;;;;;;;;;23.67;21.67;;;;;8.96;88.46;101698.66;5062033;28;45800;-79
2022/10/04 05:42:05;;;;;;;;;23.67;23.00;;;;;9.00;88.76;101699.19;5080280;28;45436;-79
2022/10/04 05:44:35;;;;;;;;;19.00;17.33;;;;;8.94;88.93;101689.97;5078783;28;45220;-78
2022/10/04 05:47:06;;;;;;;;;27.00;24.75;;;;;8.92;88.37;101697.22;5058438;28;47617;-78
2022/10/04 05:49:45;;;;;;;;;28.33;25.33;;;;;8.82;88.62;101689.28;5061634;28;45374;-79
2022/10/04 05:52:24;;;;;;;;;22.00;21.33;;;;;8.83;88.60;101701.56;5080206;28;45386;-79
2022/10/04 05:55:11;;;;;;;;;36.33;30.33;;;;;8.84;88.85;101697.09;5079854;28;45521;-78
2022/10/04 05:57:46;;;;;;;;;24.67;22.33;;;;;8.86;89.00;101705.72;5061425;28;48487;-77
2022/10/04 06:00:15;;;;;;;;;25.67;25.00;;;;;8.79;89.05;101688.72;5079715;28;45340;-77
2022/10/04 06:02:59;;;;;;;;;28.00;27.00;;;;;8.86;88.75;101699.63;5078728;28;45413;-77
2022/10/04 06:05:47;;;;;;;;;28.67;24.33;;;;;8.78;88.95;101687.91;5066105;28;45492;-77
2022/10/04 06:08:28;;;;;;;;;23.00;20.67;;;;;8.88;88.89;101709.09;5074630;28;45463;-76
2022/10/04 06:11:02;;;;;;;;;33.75;30.50;;;;;8.88;88.90;101702.94;5079379;28;45428;-76
2022/10/04 06:13:39;;;;;;;;;28.50;27.50;;;;;8.88;88.60;101708.25;5078169;27;45207;-77
2022/10/04 06:17:06;;;;;;;;;33.25;31.50;;;;;8.89;88.93;101710.75;5059655;28;48042;-77
2022/10/04 06:20:02;;;;;;;;;32.25;31.25;;;;;8.87;88.59;101704.78;4971571;28;46490;-77
2022/10/04 06:22:29;;;;;;;;;28.75;27.50;;;;;8.83;89.03;101690.13;5058661;28;45434;-78
2022/10/04 06:25:01;;;;;;;;;27.75;25.50;;;;;8.84;88.57;101697.09;5041785;28;45325;-79
2022/10/04 06:27:42;;;;;;;;;35.50;32.00;;;;;8.80;88.89;101693.88;5040983;28;47029;-78
2022/10/04 06:30:16;;;;;;;;;31.75;30.50;;;;;8.82;88.74;101697.25;5047866;28;45518;-78
2022/10/04 06:32:54;;;;;;;;;32.25;28.00;;;;;8.83;89.01;101703.38;5040844;28;45266;-77
2022/10/04 06:35:29;;;;;;;;;35.75;32.75;;;;;8.84;89.09;101705.06;5059377;28;45374;-77
2022/10/04 06:38:12;;;;;;;;;38.75;33.00;;;;;8.88;89.10;101703.78;5058797;28;45351;-77
2022/10/04 06:40:38;;;;;;;;;38.00;32.75;;;;;8.90;89.79;101708.97;5058875;28;45423;-78
2022/10/04 06:43:19;;;;;;;;;35.50;33.25;;;;;8.92;89.35;101707.00;5064316;28;45447;-79
2022/10/04 06:46:08;;;;;;;;;39.25;34.25;;;;;8.96;89.58;101714.56;5061033;28;45407;-79
2022/10/04 06:48:42;;;;;;;;;39.50;31.25;;;;;9.02;89.48;101714.97;5058949;28;45616;-78
2022/10/04 06:51:29;;;;;;;;;34.75;32.25;;;;;9.03;89.71;101713.97;5040569;28;47223;-79
2022/10/04 06:54:05;;;;;;;;;31.75;31.00;;;;;9.06;89.46;101703.94;5058974;28;45550;-79
2022/10/04 06:56:41;;;;;;;;;40.25;35.00;;;;;9.09;89.18;101714.25;5058814;28;45318;-77
2022/10/04 06:59:28;;;;;;;;;40.25;35.00;;;;;9.12;89.58;101713.13;5040520;28;47355;-79
2022/10/04 07:02:19;;;;;;;;;32.50;30.75;;;;;9.08;89.51;101712.59;5029220;28;47983;-79
2022/10/04 07:04:55;;;;;;;;;33.50;31.25;;;;;9.16;89.89;101726.97;5041609;28;45524;-79
2022/10/04 07:07:33;;;;;;;;;47.25;38.00;;;;;9.24;90.27;101724.44;5058917;28;46402;-78
2022/10/04 07:10:15;;;;;;;;;35.75;33.50;;;;;9.27;89.81;101713.53;5058334;28;46307;-79
2022/10/04 07:12:44;;;;;;;;;33.75;31.50;;;;;9.32;90.02;101707.81;5039666;28;47020;-78
2022/10/04 07:15:29;;;;;;;;;39.50;32.50;;;;;9.39;89.96;101716.88;5057131;28;45384;-78
2022/10/04 07:17:57;;;;;;;;;33.50;31.25;;;;;9.40;90.13;101715.88;5050759;28;45323;-78
2022/10/04 07:20:32;;;;;;;;;33.00;31.25;;;;;9.47;90.22;101721.47;5044154;28;46608;-79
2022/10/04 07:23:04;;;;;;;;;33.00;32.00;;;;;9.47;90.50;101709.06;5055337;28;46106;-79
2022/10/04 07:25:41;;;;;;;;;31.50;30.25;;;;;9.55;90.44;101720.78;5053769;28;45902;-79
2022/10/04 07:30:53;;;;;;;;;32.75;29.75;;;;;9.65;90.56;101732.19;5049116;28;45233;-78
2022/10/04 07:33:23;;;;;;;;;37.50;34.00;;;;;9.74;91.16;101743.78;5062512;28;45399;-78
2022/10/04 07:36:00;;;;;;;;;41.25;36.00;;;;;9.76;91.03;101735.66;5061848;28;45307;-78
2022/10/04 07:38:29;;;;;;;;;45.00;37.75;;;;;9.88;90.91;101738.97;5061887;28;45318;-78
2022/10/04 07:41:06;;;;;;;;;56.75;44.75;;;;;9.98;90.92;101745.94;5060250;28;45968;-77
2022/10/04 07:43:55;;;;;;;;;58.00;46.00;;;;;10.07;91.25;101752.19;5061353;28;45526;-78
2022/10/04 07:46:43;;;;;;;;;53.50;44.00;;;;;10.13;91.04;101758.72;5056805;28;45392;-77
2022/10/04 07:49:18;;;;;;;;;55.75;45.25;;;;;10.16;91.40;101742.50;5049448;28;45399;-78
2022/10/04 07:52:11;;;;;;;;;49.50;42.50;;;;;10.24;90.71;101749.75;5061496;28;45341;-78
2022/10/04 07:54:51;;;;;;;;;54.00;44.50;;;;;10.31;91.89;101740.19;5061522;28;45267;-78
2022/10/04 07:57:29;;;;;;;;;56.25;45.00;;;;;10.25;92.25;101711.56;5047456;28;45319;-78
2022/10/04 08:00:10;;;;;;;;;50.50;43.00;;;;;10.53;91.84;101738.13;5058650;28;45204;-78
2022/10/04 08:02:51;;;;;;;;;43.00;36.50;;;;;10.62;91.93;101731.06;5059743;28;45619;-78
2022/10/04 08:05:28;;;;;;;;;37.75;33.50;;;;;10.68;92.06;101725.16;5058776;28;46000;-78
2022/10/04 08:08:14;;;;;;;;;40.00;34.00;;;;;10.75;92.19;101714.78;5060531;28;45469;-78
2022/10/04 08:10:55;;;;;;;;;39.00;34.25;;;;;10.86;92.56;101719.00;5063737;28;45528;-78
2022/10/04 08:13:35;;;;;;;;;37.75;34.00;;;;;10.94;92.47;101716.44;5060539;28;45982;-78
2022/10/04 08:16:13;;;;;;;;;34.67;31.00;;;;;11.03;92.82;101721.81;5060423;28;45825;-77
2022/10/04 08:19:01;;;;;;;;;30.67;29.33;;;;;11.09;93.63;101713.22;5061043;28;45231;-77
2022/10/04 08:21:37;;;;;;;;;27.00;26.67;;;;;11.22;94.07;101726.13;5069335;28;45326;-77
2022/10/04 08:24:02;;;;;;;;;26.33;26.00;;;;;11.32;94.22;101718.88;5079922;28;45359;-77
2022/10/04 08:27:18;;;;;;;;;27.33;24.00;;;;;11.47;95.24;101715.69;5058524;28;47604;-76
2022/10/04 08:29:57;;;;;;;;;28.33;28.33;;;;;11.60;95.58;101724.09;5042035;28;45364;-77
2022/10/04 08:32:44;;;;;;;;;29.33;25.00;;;;;11.71;95.80;101722.16;5079726;28;45464;-78
2022/10/04 08:35:28;;;;;;;;;31.67;28.67;;;;;11.82;96.05;101726.38;5071681;27;45488;-78
2022/10/04 08:38:03;;;;;;;;;26.67;25.33;;;;;11.97;96.59;101724.78;5059914;28;48303;-77
2022/10/04 08:41:06;;;;;;;;;27.67;25.33;;;;;12.16;96.17;101727.38;5078742;28;45611;-77
2022/10/04 08:44:04;;;;;;;;;34.00;29.33;;;;;12.37;95.84;101725.13;5072154;28;45322;-77
2022/10/04 08:46:45;;;;;;;;;36.00;30.67;;;;;12.56;95.81;101739.19;5078620;28;45272;-78
2022/10/04 08:49:25;;;;;;;;;26.33;26.33;;;;;12.67;95.52;101748.72;5079292;27;45527;-79
2022/10/04 08:52:00;;;;;;;;;35.33;29.00;;;;;12.76;95.39;101754.91;5079695;28;45433;-77
2022/10/04 08:54:34;;;;;;;;;32.00;30.33;;;;;12.88;95.17;101755.41;5061725;28;45177;-77
2022/10/04 08:57:14;;;;;;;;;33.00;31.00;;;;;12.93;94.71;101754.91;5079130;28;45352;-76
2022/10/04 09:00:01;;;;;;;;;37.33;32.33;;;;;12.96;94.31;101751.94;5080016;27;45607;-77
2022/10/04 09:02:48;;;;;;;;;29.00;28.00;;;;;13.06;93.96;101760.59;5077121;28;46530;-75
2022/10/04 09:05:50;;;;;;;;;43.00;32.67;;;;;13.10;94.07;101758.41;5077768;28;45232;-75
2022/10/04 09:08:33;;;;;;;;;32.67;31.00;;;;;13.15;93.75;101760.59;5077446;27;45423;-74
2022/10/04 09:11:30;;;;;;;;;34.33;31.67;;;;;13.22;93.79;101767.78;5056259;28;48324;-74
2022/10/04 09:14:24;;;;;;;;;32.33;30.67;;;;;13.31;93.70;101765.09;5055942;28;45439;-74
2022/10/04 09:17:12;;;;;;;;;41.00;34.00;;;;;13.39;93.72;101757.91;5046154;28;45550;-74
2022/10/04 09:20:20;;;;;;;;;41.00;34.67;;;;;13.47;93.56;101759.75;5078256;28;45348;-75
2022/10/04 09:23:07;;;;;;;;;37.00;32.33;;;;;13.56;93.49;101757.94;5079483;28;45264;-74
2022/10/04 09:25:50;;;;;;;;;31.67;30.33;;;;;13.64;93.45;101765.09;5078051;28;46085;-77
2022/10/04 09:28:22;;;;;;;;;38.00;32.00;;;;;13.68;93.56;101761.06;5078985;27;45459;-74
2022/10/04 09:31:03;;;;;;;;;35.67;31.33;;;;;13.74;93.17;101768.41;5060479;28;46545;-75
2022/10/04 09:33:48;;;;;;;;;36.67;33.67;;;;;13.75;93.13;101767.44;5078834;28;45744;-75
2022/10/04 09:36:26;;;;;;;;;37.67;33.33;;;;;13.86;92.98;101776.09;5053756;28;46753;-75
2022/10/04 09:38:57;;;;;;;;;36.33;32.33;;;;;13.96;93.04;101784.75;5086059;27;45837;-76
2022/10/04 09:41:53;;;;;;;;;33.67;31.33;;;;;14.08;93.02;101779.88;5078201;27;45524;-78
2022/10/04 09:44:45;;;;;;;;;35.00;32.00;;;;;14.15;92.83;101769.31;5072106;28;47235;-77
2022/10/04 09:47:39;;;;;;;;;37.00;33.67;;;;;14.28;92.40;101776.78;5080024;28;45383;-79
2022/10/04 09:50:53;;;;;;;;;38.67;34.33;;;;;14.37;92.34;101758.88;5070808;28;45384;-76
2022/10/04 09:53:50;;;;;;;;;39.33;32.00;;;;;14.49;92.01;101756.63;5057235;28;46150;-77
2022/10/04 09:56:45;;;;;;;;;35.00;32.00;;;;;14.64;91.74;101751.38;5074484;28;45275;-77
2022/10/04 09:59:38;;;;;;;;;38.67;33.67;;;;;14.76;91.60;101747.25;5043823;28;45235;-74
2022/10/04 10:02:39;;;;;;;;;38.33;33.00;;;;;14.88;91.14;101742.34;5056238;28;45294;-76
2022/10/04 10:05:48;;;;;;;;;34.00;31.67;;;;;15.06;91.13;101737.72;5078245;28;45859;-78
2022/10/04 10:08:30;;;;;;;;;34.33;31.00;;;;;15.14;90.57;101738.47;5064806;28;48118;-76
2022/10/04 10:14:16;;;;;;;;;33.67;30.00;;;;;15.19;90.12;101737.94;5079410;28;45461;-75
2022/10/04 10:17:06;;;;;;;;;30.00;29.00;;;;;15.18;90.00;101732.78;5079624;28;45462;-78
2022/10/04 10:19:38;;;;;;;;;32.33;29.33;;;;;15.17;89.84;101720.41;5060972;28;47318;-79
2022/10/04 10:22:21;;;;;;;;;28.67;28.00;;;;;15.24;89.73;101724.00;5079184;28;45453;-78
2022/10/04 10:24:46;;;;;;;;;36.00;31.33;;;;;15.26;90.36;101714.78;5061139;28;45342;-78
2022/10/04 10:27:44;;;;;;;;;29.67;28.00;;;;;15.32;90.27;101723.13;5077030;28;45418;-78
2022/10/04 10:30:24;;;;;;;;;30.67;29.67;;;;;15.37;89.88;101715.34;5077585;28;46455;-77
2022/10/04 10:33:14;;;;;;;;;27.67;27.00;;;;;15.38;90.20;101719.69;5079146;28;45408;-76
2022/10/04 10:35:48;;;;;;;;;27.00;23.33;;;;;15.35;89.90;101707.50;5078963;28;45517;-77
2022/10/04 10:38:51;;;;;;;;;20.33;20.33;;;;;15.43;90.09;101698.56;5057719;28;45695;-77
2022/10/04 10:42:08;;;;;;;;;19.67;19.00;;;;;15.52;90.23;101699.28;5072595;27;46430;-78
2022/10/04 10:44:58;;;;;;;;;23.00;20.33;;;;;15.67;90.47;101693.94;5052589;28;45376;-77
2022/10/04 10:47:30;;;;;;;;;21.00;19.67;;;;;15.84;90.07;101686.56;5079146;28;45344;-77
2022/10/04 10:50:26;;;;;;;;;19.67;19.67;;;;;15.97;89.99;101683.22;5073297;28;45429;-76
2022/10/04 10:53:30;;;;;;;;;17.33;17.00;;;;;16.09;89.63;101680.91;5079350;28;45410;-77
2022/10/04 10:56:29;;;;;;;;;17.33;16.33;;;;;16.18;89.21;101678.09;5067788;28;45362;-76
2022/10/04 10:59:10;;;;;;;;;19.00;19.00;;;;;16.26;89.21;101673.44;5048617;28;45844;-76
2022/10/04 11:02:03;;;;;;;;;20.67;20.67;;;;;16.33;88.98;101678.06;5078218;28;45399;-77
2022/10/04 11:04:58;;;;;;;;;18.67;18.00;;;;;16.35;88.80;101668.81;5081837;28;46217;-78
2022/10/04 11:07:49;;;;;;;;;17.00;16.00;;;;;16.43;87.84;101667.03;5077947;27;45460;-79
2022/10/04 11:10:17;;;;;;;;;20.33;19.67;;;;;16.48;87.60;101659.22;5070272;28;45377;-76
2022/10/04 11:13:20;;;;;;;;;14.00;13.67;;;;;16.60;87.58;101663.06;5061409;28;47570;-76
2022/10/04 11:16:20;;;;;;;;;16.67;16.67;;;;;16.75;87.67;101662.16;5081489;28;46364;-77
2022/10/04 11:19:09;;;;;;;;;19.33;18.67;;;;;16.92;87.81;101668.09;5082121;28;45327;-80
2022/10/04 11:22:05;;;;;;;;;17.00;17.00;;;;;17.10;87.35;101659.59;5070028;28;45263;-79
2022/10/04 11:24:54;;;;;;;;;15.00;15.00;;;;;17.27;86.51;101660.09;5082015;28;45225;-77
2022/10/04 11:27:19;;;;;;;;;14.67;14.67;;;;;17.41;85.73;101652.13;5063678;28;46702;-78
2022/10/04 11:29:57;;;;;;;;;15.67;14.00;;;;;17.56;85.64;101656.53;5062269;28;45257;-77
2022/10/04 11:32:44;;;;;;;;;14.33;13.67;;;;;17.74;84.65;101656.00;5083790;27;45356;-79
2022/10/04 11:35:48;;;;;;;;;12.67;12.00;;;;;17.84;84.54;101663.72;5083234;27;45381;-79
2022/10/04 11:38:19;;;;;;;;;15.00;13.00;;;;;17.95;84.30;101663.13;5081903;28;45370;-78
2022/10/04 11:40:48;;;;;;;;;11.00;11.00;;;;;18.05;83.30;101666.25;5062321;27;45509;-78
2022/10/04 11:43:30;;;;;;;;;11.00;11.00;;;;;18.14;83.15;101675.00;5082509;27;45776;-81
2022/10/04 11:46:28;;;;;;;;;11.67;10.67;;;;;18.14;82.39;101664.25;5081613;28;45597;-80
2022/10/04 11:49:20;;;;;;;;;9.67;9.67;;;;;18.22;80.75;101671.31;5094243;27;46748;-77
2022/10/04 11:51:57;;;;;;;;;12.67;11.00;;;;;18.35;81.58;101680.47;5081723;28;45373;-79
2022/10/04 11:54:51;;;;;;;;;10.33;9.67;;;;;18.50;81.36;101680.28;5063936;28;45282;-76
2022/10/04 11:57:30;;;;;;;;;11.67;11.67;;;;;18.41;80.32;101674.28;5050558;28;46155;-78
2022/10/04 12:00:16;;;;;;;;;9.67;9.67;;;;;18.57;79.96;101681.13;5080349;28;45351;-78
2022/10/04 12:03:08;;;;;;;;;10.67;10.00;;;;;18.65;80.13;101682.78;5081718;28;45324;-78
2022/10/04 12:06:02;;;;;;;;;12.33;10.67;;;;;18.76;79.94;101682.16;5067366;28;45442;-79
2022/10/04 12:08:36;;;;;;;;;13.00;12.00;;;;;18.83;80.23;101670.56;5087280;27;45452;-78
2022/10/04 12:11:19;;;;;;;;;12.00;10.67;;;;;18.94;79.36;101678.00;5081439;28;46501;-78
2022/10/04 12:14:04;;;;;;;;;10.33;9.33;;;;;19.03;78.36;101676.78;5081058;28;45539;-78
2022/10/04 12:17:12;;;;;;;;;8.00;8.00;;;;;19.05;78.09;101663.94;5081062;28;45357;-78